Time;durP1;ratioP1;P1;durP2;ratioP2;P2;SDS_P1;SDS_P2;PMS_P1;PMS_P2;Temp;Humidity;BMP_temperature;BMP_pressure;BME280_temperature;BME280_humidity;BME280_pressure;Samples;Min_cycle;Max_cycle;Signal;HPM_P1;HPM_P2
2022/12/05 00:00:00;;;;;;;47.38;25.98;;;;;;;1.03;100.00;101676.97;5072169;28;20051;-82
2022/12/05 00:02:37;;;;;;;48.15;27.35;;;;;;;1.05;100.00;101684.72;5070126;28;20141;-81
2022/12/05 00:05:03;;;;;;;49.38;26.98;;;;;;;1.05;100.00;101680.47;5072109;28;20054;-82
2022/12/05 00:07:46;;;;;;;47.97;26.55;;;;;;;1.04;100.00;101686.38;5072196;28;20020;-83
2022/12/05 00:10:12;;;;;;;48.08;26.00;;;;;;;1.07;100.00;101689.06;5071159;28;20111;-82
2022/12/05 00:12:37;;;;;;;45.53;26.58;;;;;;;1.10;100.00;101690.84;5072163;28;20056;-82
2022/12/05 00:15:11;;;;;;;44.88;25.52;;;;;;;1.11;100.00;101684.06;5071920;28;20090;-82
2022/12/05 00:17:38;;;;;;;50.40;27.08;;;;;;;1.08;100.00;101690.81;5071619;28;20365;-83
2022/12/05 00:20:03;;;;;;;;;;;;;;;1.13;100.00;101687.53;5124742;22;20528;-82
2022/12/05 00:22:29;;;;;;;47.33;26.43;;;;;;;1.13;100.00;101693.53;5072033;28;19913;-82
2022/12/05 00:24:54;;;;;;;47.97;27.30;;;;;;;1.13;100.00;101690.09;5071747;28;20047;-82
2022/12/05 00:27:22;;;;;;;48.35;25.90;;;;;;;1.16;100.00;101685.09;5075174;28;20017;-83
2022/12/05 00:29:47;;;;;;;47.75;26.52;;;;;;;1.17;100.00;101687.75;5075475;28;20023;-82
2022/12/05 00:32:12;;;;;;;49.70;27.77;;;;;;;1.15;100.00;101686.81;5074668;28;20028;-82
2022/12/05 00:34:37;;;;;;;47.13;26.30;;;;;;;1.18;100.00;101678.38;5075653;28;20078;-82
2022/12/05 00:37:03;;;;;;;49.13;27.42;;;;;;;1.18;100.00;101678.38;5075240;28;20099;-82
2022/12/05 00:39:28;;;;;;;49.38;27.42;;;;;;;1.17;100.00;101676.63;5074744;28;20020;-82
2022/12/05 00:41:53;;;;;;;48.17;26.58;;;;;;;1.20;100.00;101671.63;5075309;28;20115;-82
2022/12/05 00:44:19;;;;;;;49.35;26.48;;;;;;;1.21;100.00;101679.34;5074759;28;20030;-82
2022/12/05 00:46:44;;;;;;;44.47;25.35;;;;;;;1.23;100.00;101677.72;5074998;28;20024;-82
2022/12/05 00:49:10;;;;;;;46.08;26.58;;;;;;;1.25;100.00;101671.78;5075036;28;20046;-82
2022/12/05 00:51:41;;;;;;;44.30;25.63;;;;;;;1.25;100.00;101675.19;5074748;28;20039;-81
2022/12/05 00:54:11;;;;;;;47.65;27.42;;;;;;;1.27;100.00;101678.69;5136000;22;20048;-83
2022/12/05 00:56:37;;;;;;;47.17;26.95;;;;;;;1.28;100.00;101670.22;5075080;28;20032;-82
2022/12/05 00:59:04;;;;;;;46.58;26.38;;;;;;;1.28;100.00;101675.31;5073678;28;20029;-82
2022/12/05 01:01:34;;;;;;;48.67;27.15;;;;;;;1.27;100.00;101680.41;5074866;28;20025;-82
2022/12/05 01:04:07;;;;;;;44.70;25.73;;;;;;;1.30;100.00;101667.69;5075330;28;20108;-83
2022/12/05 01:06:33;;;;;;;46.50;26.27;;;;;;;1.31;100.00;101667.78;5074186;28;20036;-82
2022/12/05 01:08:58;;;;;;;46.72;25.67;;;;;;;1.33;100.00;101676.38;5074816;28;20025;-82
2022/12/05 01:11:25;;;;;;;47.90;27.40;;;;;;;1.32;100.00;101682.31;5074738;28;20099;-82
2022/12/05 01:13:51;;;;;;;48.95;26.55;;;;;;;1.31;100.00;101687.34;5074262;28;20070;-82
2022/12/05 01:16:25;;;;;;;42.00;24.52;;;;;;;1.35;100.00;101684.09;5074723;28;20070;-83
2022/12/05 01:18:51;;;;;;;47.58;27.83;;;;;;;1.32;100.00;101679.75;5074908;28;20377;-83
2022/12/05 01:21:17;;;;;;;45.85;24.98;;;;;;;1.36;100.00;101683.28;5073274;28;20029;-82
2022/12/05 01:23:42;;;;;;;45.72;26.02;;;;;;;1.35;100.00;101692.63;5074590;28;20130;-82
2022/12/05 01:26:11;;;;;;;50.50;27.52;;;;;;;1.33;100.00;101683.16;5074013;28;20024;-83
2022/12/05 01:28:36;;;;;;;46.97;27.00;;;;;;;1.38;100.00;101695.31;5053808;28;20048;-82
2022/12/05 01:31:17;;;;;;;44.90;26.00;;;;;;;1.39;100.00;101691.06;5054379;28;20469;-82
2022/12/05 01:33:42;;;;;;;47.83;26.90;;;;;;;1.38;100.00;101695.31;5054236;28;20036;-82
2022/12/05 01:36:11;;;;;;;48.95;28.85;;;;;;;1.37;100.00;101697.81;5053422;28;20032;-81
2022/12/05 01:38:38;;;;;;;48.20;26.88;;;;;;;1.39;100.00;101701.31;5054383;28;20025;-83
2022/12/05 01:41:06;;;;;;;46.95;27.55;;;;;;;1.38;100.00;101702.97;5053533;28;20028;-83
2022/12/05 01:43:32;;;;;;;44.00;25.10;;;;;;;1.42;100.00;101705.66;5054198;28;20032;-83
2022/12/05 01:45:58;;;;;;;46.97;27.70;;;;;;;1.39;100.00;101706.41;5054279;28;20036;-82
2022/12/05 01:48:35;;;;;;;42.80;24.80;;;;;;;1.43;100.00;101707.41;5052854;28;20029;-82
2022/12/05 01:51:01;;;;;;;44.03;25.45;;;;;;;1.44;100.00;101706.59;5054133;28;20017;-82
2022/12/05 01:53:28;;;;;;;44.38;26.13;;;;;;;1.44;100.00;101701.47;5053281;28;20036;-83
2022/12/05 01:55:54;;;;;;;41.13;24.20;;;;;;;1.46;100.00;101717.75;5053722;28;20424;-82
2022/12/05 01:58:20;;;;;;;40.22;23.45;;;;;;;1.50;100.00;101714.47;5070980;28;20029;-82
2022/12/05 02:00:46;;;;;;;44.88;26.02;;;;;;;1.48;100.00;101711.88;5073621;28;20024;-83
2022/12/05 02:03:17;;;;;;;43.88;25.08;;;;;;;1.50;100.00;101722.13;5072758;28;20059;-82
2022/12/05 02:05:49;;;;;;;46.05;25.30;;;;;;;1.49;100.00;101723.84;5073795;28;20024;-82
2022/12/05 02:08:15;;;;;;;45.25;25.70;;;;;;;1.46;100.00;101715.19;5073428;28;20027;-83
2022/12/05 02:10:59;;;;;;;42.50;25.52;;;;;;;1.46;100.00;101713.50;5059245;28;20532;-83
2022/12/05 02:14:05;;;;;;;45.38;25.42;;;;;;;1.47;100.00;101717.78;5053130;28;20033;-82
2022/12/05 02:16:59;;;;;;;44.22;25.05;;;;;;;1.50;100.00;101714.47;5052944;28;20036;-82
2022/12/05 02:19:33;;;;;;;43.88;25.58;;;;;;;1.49;100.00;101717.84;5053136;28;20090;-82
2022/12/05 02:22:19;;;;;;;44.97;26.13;;;;;;;1.47;100.00;101716.91;5053454;28;20029;-82
2022/12/05 02:24:54;;;;;;;43.65;24.23;;;;;;;1.49;100.00;101718.72;5049338;28;20043;-82
2022/12/05 02:27:52;;;;;;;40.67;23.23;;;;;;;1.52;100.00;101715.41;5072505;28;20031;-82
2022/12/05 02:30:20;;;;;;;45.05;25.08;;;;;;;1.52;100.00;101712.84;5072435;28;20392;-82
2022/12/05 02:33:05;;;;;;;45.95;25.48;;;;;;;1.52;100.00;101715.41;5073361;28;20098;-82
2022/12/05 02:35:49;;;;;;;44.00;25.50;;;;;;;1.52;100.00;101715.41;5072829;28;20109;-82
2022/12/05 02:38:36;;;;;;;44.50;25.77;;;;;;;1.50;100.00;101710.25;5072286;28;20495;-82
2022/12/05 02:41:15;;;;;;;45.65;25.60;;;;;;;1.50;100.00;101710.25;5073225;28;20024;-83
2022/12/05 02:43:51;;;;;;;43.00;23.23;;;;;;;1.53;100.00;101710.31;5072805;28;20036;-82
2022/12/05 02:46:20;;;;;;;42.28;23.77;;;;;;;1.50;100.00;101702.56;5071954;28;20350;-82
2022/12/05 02:48:48;;;;;;;43.92;24.75;;;;;;;1.51;100.00;101712.00;5072550;28;20021;-83
2022/12/05 02:51:34;;;;;;;40.03;23.23;;;;;;;1.55;100.00;101712.97;5071664;28;20465;-82
2022/12/05 02:54:05;;;;;;;42.75;24.63;;;;;;;1.55;100.00;101718.06;5072348;28;20041;-82
2022/12/05 02:56:33;;;;;;;45.03;25.17;;;;;;;1.53;100.00;101712.03;5072177;28;20027;-83
2022/12/05 02:59:13;;;;;;;44.33;25.20;;;;;;;1.52;100.00;101716.25;5052313;28;20051;-82
2022/12/05 03:01:38;;;;;;;46.33;25.83;;;;;;;1.48;100.00;101716.97;5072431;28;20538;-82
2022/12/05 03:04:06;;;;;;;48.40;26.98;;;;;;;1.48;100.00;101716.97;5072894;28;20064;-82
2022/12/05 03:06:56;;;;;;;48.53;26.63;;;;;;;1.53;100.00;101720.56;5072177;28;20564;-82
2022/12/05 03:09:56;;;;;;;45.58;25.75;;;;;;;1.50;100.00;101724.69;5072524;28;20103;-82
2022/12/05 03:12:43;;;;;;;49.13;27.00;;;;;;;1.45;100.00;101705.78;5071907;28;20766;-82
2022/12/05 03:15:35;;;;;;;49.28;27.38;;;;;;;1.45;100.00;101716.00;5072656;28;20051;-82
2022/12/05 03:18:30;;;;;;;48.22;27.08;;;;;;;1.46;100.00;101713.50;5072828;28;20054;-83
2022/12/05 03:21:17;;;;;;;47.08;26.75;;;;;;;1.49;100.00;101715.28;5072229;28;20060;-83
2022/12/05 03:23:48;;;;;;;48.20;25.73;;;;;;;1.48;100.00;101716.09;5072458;28;20115;-82
2022/12/05 03:26:39;;;;;;;45.17;25.70;;;;;;;1.49;100.00;101712.72;5072215;28;20025;-83
2022/12/05 03:29:26;;;;;;;46.08;25.58;;;;;;;1.49;100.00;101708.50;5072232;28;20043;-82
2022/12/05 03:32:29;;;;;;;46.28;26.15;;;;;;;1.50;100.00;101711.91;5072668;28;20082;-83
2022/12/05 03:35:49;;;;;;;49.28;27.67;;;;;;;1.45;100.00;101716.00;5072006;28;20056;-82
2022/12/05 03:38:38;;;;;;;49.20;26.65;;;;;;;1.45;100.00;101709.19;5072233;28;20021;-82
2022/12/05 03:41:40;;;;;;;49.50;27.15;;;;;;;1.42;100.00;101711.63;5071763;28;20044;-83
2022/12/05 03:44:56;;;;;;;50.63;27.85;;;;;;;1.44;100.00;101715.13;5072446;28;20020;-83
2022/12/05 03:47:32;;;;;;;43.65;24.40;;;;;;;1.48;100.00;101709.31;5069905;28;20040;-83
2022/12/05 03:50:05;;;;;;;45.25;25.52;;;;;;;1.49;100.00;101711.06;5133735;22;20049;-82
2022/12/05 03:52:42;;;;;;;45.92;26.05;;;;;;;1.49;100.00;101705.03;5073923;28;20036;-82
2022/12/05 03:55:12;;;;;;;46.22;26.48;;;;;;;1.49;100.00;101710.16;5090997;28;20024;-82
2022/12/05 03:57:52;;;;;;;43.95;25.73;;;;;;;1.52;100.00;101706.03;5092768;28;20016;-82
2022/12/05 04:00:21;;;;;;;40.42;22.73;;;;;;;1.55;100.00;101712.97;5093375;28;20430;-82
2022/12/05 04:02:54;;;;;;;46.33;26.42;;;;;;;1.53;100.00;101709.47;5095910;28;20110;-82
2022/12/05 04:05:33;;;;;;;50.35;28.15;;;;;;;1.47;100.00;101710.13;5096293;28;20028;-82
2022/12/05 04:08:05;;;;;;;45.60;25.40;;;;;;;1.52;100.00;101716.25;5096365;28;20070;-82
2022/12/05 04:10:47;;;;;;;44.78;25.00;;;;;;;1.52;100.00;101720.50;5095328;28;20024;-82
2022/12/05 04:13:18;;;;;;;44.13;25.75;;;;;;;1.53;100.00;101719.69;5096414;28;20035;-83
2022/12/05 04:18:57;;;;;;;46.35;26.27;;;;;;;1.48;100.00;101723.75;5096330;28;20058;-82
2022/12/05 04:21:38;;;;;;;47.90;26.90;;;;;;;1.46;100.00;101723.72;5095605;28;20031;-82
2022/12/05 04:27:25;;;;;;;46.85;25.27;;;;;;;1.53;100.00;101719.69;5096108;28;20046;-82
2022/12/05 04:30:01;;;;;;;45.97;26.52;;;;;;;1.50;100.00;101720.47;5095250;28;20066;-82
2022/12/05 04:32:33;;;;;;;45.85;25.65;;;;;;;1.51;100.00;101727.34;5095741;28;20543;-82
2022/12/05 04:35:05;;;;;;;45.83;27.00;;;;;;;1.51;100.00;101724.78;5095919;28;20031;-82
2022/12/05 04:37:36;;;;;;;42.58;23.02;;;;;;;1.53;100.00;101729.94;5094962;28;20028;-82
2022/12/05 04:40:10;;;;;;;42.08;24.13;;;;;;;1.52;100.00;101723.06;5095429;28;20393;-83
2022/12/05 04:42:39;;;;;;;42.03;24.48;;;;;;;1.54;100.00;101729.97;5095774;28;20032;-83
2022/12/05 04:45:08;;;;;;;45.90;26.20;;;;;;;1.53;100.00;101733.34;5094361;28;20469;-82
2022/12/05 04:47:38;;;;;;;44.10;25.58;;;;;;;1.56;100.00;101736.84;5094955;28;20032;-82
2022/12/05 04:50:06;;;;;;;39.50;22.55;;;;;;;1.58;100.00;101743.75;5095039;28;20040;-82
2022/12/05 04:52:32;;;;;;;41.05;23.48;;;;;;;1.59;100.00;101737.81;5093984;28;20036;-81
2022/12/05 04:55:19;;;;;;;41.72;22.80;;;;;;;1.62;100.00;101740.50;5095189;28;20027;-82
2022/12/05 04:58:03;;;;;;;39.45;22.35;;;;;;;1.64;100.00;101735.44;5094862;28;20020;-81
2022/12/05 05:00:30;;;;;;;48.22;25.90;;;;;;;1.60;100.00;101729.34;5095069;28;20123;-82
2022/12/05 05:03:41;;;;;;;44.60;25.17;;;;;;;1.60;100.00;101731.88;5094947;28;20020;-82
2022/12/05 05:06:10;;;;;;;41.17;22.90;;;;;;;1.62;100.00;101732.81;5012058;28;20438;-83
2022/12/05 05:08:35;;;;;;;43.90;24.73;;;;;;;1.61;100.00;101727.66;5013022;28;20398;-82
2022/12/05 05:11:00;;;;;;;43.30;23.60;;;;;;;1.64;100.00;101725.19;5055804;28;20043;-82
2022/12/05 05:13:26;;;;;;;46.95;25.42;;;;;;;1.64;100.00;101727.75;5094186;28;20027;-82
2022/12/05 05:15:51;;;;;;;40.15;21.77;;;;;;;1.67;100.00;101732.97;5095244;28;20028;-82
2022/12/05 05:18:16;;;;;;;40.08;22.40;;;;;;;1.69;100.00;101737.34;5094137;28;20020;-82
2022/12/05 05:20:48;;;;;;;41.15;23.10;;;;;;;1.70;100.00;101740.78;5186980;22;20059;-82
2022/12/05 05:23:16;;;;;;;41.50;23.58;;;;;;;1.70;100.00;101739.06;5074284;28;20468;-82
2022/12/05 05:25:41;;;;;;;43.30;24.20;;;;;;;1.68;100.00;101745.84;5074735;28;20444;-82
2022/12/05 05:28:06;;;;;;;43.38;24.27;;;;;;;1.67;100.00;101746.66;5073715;28;20052;-82
2022/12/05 05:30:50;;;;;;;40.97;23.20;;;;;;;1.68;100.00;101745.84;5092747;28;20107;-82
2022/12/05 05:33:15;;;;;;;40.60;22.65;;;;;;;1.71;100.00;101747.66;5093649;28;20046;-82
2022/12/05 05:35:40;;;;;;;38.17;21.23;;;;;;;1.74;100.00;101745.19;5094589;28;20024;-83
2022/12/05 05:38:06;;;;;;;40.55;23.50;;;;;;;1.71;100.00;101739.97;5094398;28;20020;-83
2022/12/05 05:40:37;;;;;;;39.95;23.23;;;;;;;1.73;100.00;101737.44;5093722;28;20028;-82
2022/12/05 05:43:03;;;;;;;38.72;22.65;;;;;;;1.74;100.00;101739.19;5094072;28;20089;-82
2022/12/05 05:45:28;;;;;;;39.75;22.23;;;;;;;1.75;100.00;101731.56;5094371;28;20020;-82
2022/12/05 05:48:15;;;;;;;37.72;21.33;;;;;;;1.76;100.00;101735.00;5092599;28;20050;-84
2022/12/05 05:50:39;;;;;;;42.35;23.50;;;;;;;1.76;100.00;101735.00;5093616;28;20373;-83
2022/12/05 05:53:10;;;;;;;39.83;21.58;;;;;;;1.80;100.00;101744.56;5093733;28;20024;-83
2022/12/05 05:55:53;;;;;;;38.83;21.25;;;;;;;1.81;100.00;101742.03;5093580;28;20073;-82
2022/12/05 05:58:19;;;;;;;37.03;20.83;;;;;;;1.84;100.00;101746.38;5094231;28;20016;-83
2022/12/05 06:00:47;;;;;;;39.13;21.92;;;;;;;1.84;100.00;101744.72;5094284;28;20533;-80
2022/12/05 06:03:15;;;;;;;38.50;22.25;;;;;;;1.84;100.00;101746.38;5092881;28;20118;-82
2022/12/05 06:05:41;;;;;;;36.60;20.50;;;;;;;1.85;100.00;101743.00;5093694;28;20032;-82
2022/12/05 06:08:06;;;;;;;36.50;20.13;;;;;;;1.88;100.00;101750.81;5092948;28;20012;-82
2022/12/05 06:10:47;;;;;;;36.90;20.80;;;;;;;1.91;100.00;101755.16;5093880;28;20077;-82
2022/12/05 06:13:12;;;;;;;39.50;22.40;;;;;;;1.84;100.00;101756.63;5088783;28;20086;-83
2022/12/05 06:15:37;;;;;;;40.30;23.15;;;;;;;1.83;100.00;101765.09;5072527;28;20020;-83
2022/12/05 06:18:03;;;;;;;39.13;21.80;;;;;;;1.85;100.00;101753.25;5088605;28;20052;-83
2022/12/05 06:20:28;;;;;;;38.38;20.98;;;;;;;1.85;100.00;101753.25;5092825;28;20425;-84
2022/12/05 06:22:53;;;;;;;38.45;22.27;;;;;;;1.86;100.00;101770.34;5092217;28;20511;-83
2022/12/05 06:25:34;;;;;;;40.58;22.63;;;;;;;1.84;100.00;101762.63;5093025;28;20031;-83
2022/12/05 06:27:59;;;;;;;38.70;22.13;;;;;;;1.86;100.00;101762.66;5093583;28;20035;-83
2022/12/05 06:30:25;;;;;;;38.70;21.42;;;;;;;1.88;100.00;101758.47;5092643;28;20113;-82
2022/12/05 06:32:50;;;;;;;39.60;22.10;;;;;;;1.85;100.00;101771.16;5151250;22;20017;-82
2022/12/05 06:35:15;;;;;;;39.92;22.42;;;;;;;1.84;100.00;101766.84;5072749;28;20035;-83
2022/12/05 06:37:42;;;;;;;40.05;22.08;;;;;;;1.83;100.00;101766.00;5072465;28;20025;-81
2022/12/05 06:40:09;;;;;;;39.85;22.60;;;;;;;1.85;100.00;101769.50;5073038;28;20055;-82
2022/12/05 06:42:34;;;;;;;37.05;21.23;;;;;;;1.86;100.00;101765.22;5072952;28;20074;-82
2022/12/05 06:44:59;;;;;;;38.08;21.50;;;;;;;1.82;100.00;101764.25;5072346;28;20029;-82
2022/12/05 06:47:24;;;;;;;38.83;23.10;;;;;;;1.85;100.00;101768.59;5072020;28;20020;-82
2022/12/05 06:49:50;;;;;;;38.35;21.50;;;;;;;1.83;100.00;101760.88;5090638;28;20059;-84
2022/12/05 06:52:15;;;;;;;36.92;20.95;;;;;;;1.87;100.00;101761.84;5092302;28;20115;-86
2022/12/05 06:54:40;;;;;;;36.65;20.23;;;;;;;1.88;100.00;101763.59;5092906;28;20023;-85
2022/12/05 06:57:05;;;;;;;31.75;18.08;;;;;;;1.92;100.00;101769.69;5093031;28;20028;-85
2022/12/05 06:59:31;;;;;;;33.88;18.75;;;;;;;1.93;100.00;101766.31;5092498;28;20447;-83
2022/12/05 07:01:56;;;;;;;32.92;18.67;;;;;;;1.94;100.00;101774.03;5077964;28;20102;-83
2022/12/05 07:04:23;;;;;;;35.47;20.17;;;;;;;1.94;100.00;101783.44;5072179;28;20035;-83
2022/12/05 07:06:49;;;;;;;34.92;20.40;;;;;;;1.93;100.00;101779.97;5073074;28;20063;-84
2022/12/05 07:09:15;;;;;;;33.28;18.85;;;;;;;1.95;100.00;101782.63;5072407;28;20024;-84
2022/12/05 07:11:40;;;;;;;32.80;18.52;;;;;;;1.96;100.00;101782.66;5079963;22;20118;-83
2022/12/05 07:14:24;;;;;;;33.10;18.15;;;;;;;1.94;100.00;101781.72;5072647;28;20025;-83
2022/12/05 07:16:50;;;;;;;35.33;19.40;;;;;;;1.97;100.00;101789.53;5072463;28;20039;-83
2022/12/05 07:19:31;;;;;;;31.30;18.25;;;;;;;1.99;100.00;101792.13;5071608;28;20029;-83
2022/12/05 07:21:56;;;;;;;32.55;17.63;;;;;;;1.99;100.00;101795.56;5072565;28;20127;-83
2022/12/05 07:24:21;;;;;;;29.15;16.40;;;;;;;2.03;100.00;101795.69;5072193;28;20116;-84
2022/12/05 07:26:47;;;;;;;31.10;18.23;;;;;;;2.02;100.00;101806.75;5072060;28;20107;-83
2022/12/05 07:29:30;;;;;;;32.72;18.73;;;;;;;2.01;100.00;101803.28;5072445;28;20040;-83
2022/12/05 07:31:55;;;;;;;33.67;19.25;;;;;;;1.97;100.00;101802.31;5072682;28;20059;-83
2022/12/05 07:34:21;;;;;;;35.17;20.17;;;;;;;1.97;100.00;101806.59;5072962;28;20021;-83
2022/12/05 07:36:46;;;;;;;37.47;20.70;;;;;;;2.00;100.00;101811.78;5094310;22;20049;-83
2022/12/05 07:39:11;;;;;;;35.40;19.33;;;;;;;2.01;100.00;101810.97;5076309;28;20028;-82
2022/12/05 07:41:36;;;;;;;34.13;18.75;;;;;;;2.02;100.00;101810.16;5076235;28;20024;-83
2022/12/05 07:44:02;;;;;;;33.63;18.75;;;;;;;2.01;100.00;101805.84;5076591;28;20484;-83
2022/12/05 07:46:28;;;;;;;32.45;18.25;;;;;;;2.02;100.00;101812.72;5076669;28;20530;-82
2022/12/05 07:48:54;;;;;;;32.20;17.73;;;;;;;2.03;100.00;101811.91;5075760;28;20054;-84
2022/12/05 07:51:20;;;;;;;30.00;16.27;;;;;;;2.05;100.00;101817.06;5075654;28;20056;-83
2022/12/05 07:53:46;;;;;;;30.93;16.93;;;;;;;2.06;100.00;101816.25;5075543;28;20020;-82
2022/12/05 07:56:15;;;;;;;29.40;15.63;;;;;;;2.08;100.00;101817.19;5076200;28;20473;-81
2022/12/05 07:58:41;;;;;;;30.77;16.77;;;;;;;2.08;100.00;101818.09;5076342;28;20089;-82
2022/12/05 08:01:09;;;;;;;30.45;16.48;;;;;;;2.08;100.00;101818.09;5075274;28;20107;-82
2022/12/05 08:03:36;;;;;;;30.98;16.77;;;;;;;2.09;100.00;101818.94;5075927;28;20032;-82
2022/12/05 08:06:09;;;;;;;33.17;18.65;;;;;;;2.07;100.00;101821.47;5076031;28;20039;-82
2022/12/05 08:08:34;;;;;;;33.45;18.80;;;;;;;2.07;100.00;101826.56;5075231;28;20047;-82
2022/12/05 08:11:05;;;;;;;31.90;18.50;;;;;;;2.10;100.00;101825.81;5075648;28;20032;-82
2022/12/05 08:13:31;;;;;;;34.95;19.38;;;;;;;2.07;100.00;101833.38;5075131;28;20028;-81
2022/12/05 08:16:00;;;;;;;35.58;20.23;;;;;;;2.06;100.00;101834.19;5074908;28;20138;-82
2022/12/05 08:18:26;;;;;;;35.03;20.05;;;;;;;2.04;100.00;101838.38;5075561;28;20119;-82
2022/12/05 08:20:51;;;;;;;33.47;18.85;;;;;;;2.07;100.00;101846.19;5075403;28;20107;-82
2022/12/05 08:23:16;;;;;;;35.38;20.48;;;;;;;2.06;100.00;101841.88;5074290;28;20070;-82
2022/12/05 08:25:41;;;;;;;30.60;17.60;;;;;;;2.09;100.00;101847.09;5075832;28;20021;-82
2022/12/05 08:28:07;;;;;;;32.35;17.90;;;;;;;2.10;100.00;101847.16;5075423;28;20100;-82
2022/12/05 08:30:32;;;;;;;32.22;18.05;;;;;;;2.10;100.00;101848.84;5075217;28;20032;-82
2022/12/05 08:32:57;;;;;;;29.75;15.90;;;;;;;2.14;100.00;101843.00;5075494;28;20025;-81
2022/12/05 08:35:23;;;;;;;30.00;16.33;;;;;;;2.16;100.00;101854.19;5074943;28;20132;-82
2022/12/05 08:37:48;;;;;;;27.90;15.13;;;;;;;2.19;100.00;101850.88;5074602;28;20031;-81
2022/12/05 08:40:13;;;;;;;27.02;14.57;;;;;;;2.21;100.00;101854.34;5074843;28;20107;-81
2022/12/05 08:42:39;;;;;;;26.40;14.63;;;;;;;2.22;100.00;101854.41;5075050;28;20032;-82
2022/12/05 08:45:25;;;;;;;25.13;12.70;;;;;;;2.25;100.00;101853.66;5074602;28;20029;-81
2022/12/05 08:47:50;;;;;;;22.30;11.68;;;;;;;2.26;100.00;101853.69;5074353;28;20473;-82
2022/12/05 08:50:15;;;;;;;22.75;11.93;;;;;;;2.28;100.00;101857.19;5074394;28;20146;-82
2022/12/05 08:52:41;;;;;;;26.63;13.77;;;;;;;2.27;100.00;101845.19;5075331;28;20020;-82
2022/12/05 08:55:06;;;;;;;31.88;16.48;;;;;;;2.25;100.00;101857.06;5074809;28;20031;-83
2022/12/05 08:57:32;;;;;;;31.02;17.45;;;;;;;2.23;100.00;101861.28;5073747;28;20080;-82
2022/12/05 08:59:57;;;;;;;29.13;16.25;;;;;;;2.25;100.00;101859.63;5074866;28;20431;-82
2022/12/05 09:02:22;;;;;;;25.77;13.82;;;;;;;2.28;100.00;101858.88;5074444;28;20086;-82
2022/12/05 09:04:51;;;;;;;26.63;13.95;;;;;;;2.28;100.00;101859.75;5074425;28;20381;-82
2022/12/05 09:07:16;;;;;;;31.13;16.60;;;;;;;2.27;100.00;101864.81;5074554;28;20032;-82
2022/12/05 09:09:42;;;;;;;27.15;14.00;;;;;;;2.29;100.00;101858.06;5074576;28;20085;-82
2022/12/05 09:12:19;;;;;;;25.67;13.20;;;;;;;2.33;100.00;101870.16;5073520;28;20035;-82
2022/12/05 09:14:44;;;;;;;22.98;11.60;;;;;;;2.34;100.00;101866.78;5074479;28;20028;-81
2022/12/05 09:17:09;;;;;;;23.23;11.55;;;;;;;2.38;100.00;101870.31;5074567;28;20029;-82
2022/12/05 09:19:35;;;;;;;26.75;13.93;;;;;;;2.38;100.00;101871.19;5074025;28;20052;-82
2022/12/05 09:22:00;;;;;;;24.55;11.70;;;;;;;2.40;100.00;101871.25;5074765;28;20423;-82
2022/12/05 09:24:26;;;;;;;27.80;14.88;;;;;;;2.36;100.00;101877.09;5074160;28;20063;-82
2022/12/05 09:26:51;;;;;;;31.30;16.70;;;;;;;2.31;100.00;101885.47;5073566;28;20483;-82
2022/12/05 09:29:17;;;;;;;31.83;17.95;;;;;;;2.28;100.00;101887.91;5073988;28;20437;-83
2022/12/05 09:31:43;;;;;;;29.92;16.30;;;;;;;2.27;100.00;101893.00;5074806;28;20376;-82
2022/12/05 09:34:08;;;;;;;29.40;16.52;;;;;;;2.29;100.00;101892.22;5073225;28;20024;-83
2022/12/05 09:36:34;;;;;;;24.45;12.75;;;;;;;2.33;100.00;101892.34;5074220;28;20040;-82
2022/12/05 09:39:02;;;;;;;24.85;13.13;;;;;;;2.37;100.00;101896.75;5073893;28;20025;-83
2022/12/05 09:42:12;;;;;;;22.25;11.07;;;;;;;2.42;100.00;101895.22;5073420;28;20029;-82
2022/12/05 09:44:56;;;;;;;23.42;12.00;;;;;;;2.45;100.00;101897.91;5052047;28;20036;-83
2022/12/05 09:47:58;;;;;;;24.00;12.57;;;;;;;2.44;100.00;101898.72;5071451;28;20113;-83
2022/12/05 09:50:32;;;;;;;23.65;11.82;;;;;;;2.44;100.00;101903.84;5073989;28;20032;-82
2022/12/05 09:53:07;;;;;;;23.08;12.00;;;;;;;2.44;100.00;101902.16;5073633;28;20101;-83
2022/12/05 09:55:42;;;;;;;23.73;11.93;;;;;;;2.46;100.00;101902.22;5068103;28;20134;-83
2022/12/05 09:58:21;;;;;;;25.98;14.15;;;;;;;2.45;100.00;101908.16;5073596;28;20035;-82
2022/12/05 10:00:50;;;;;;;26.58;13.90;;;;;;;2.40;100.00;101904.53;5073305;28;20044;-82
2022/12/05 10:03:29;;;;;;;24.88;12.75;;;;;;;2.42;100.00;101905.47;5073223;28;20041;-83
2022/12/05 10:06:17;;;;;;;22.65;11.38;;;;;;;2.47;100.00;101901.41;5073933;28;20035;-83
2022/12/05 10:08:52;;;;;;;25.88;13.82;;;;;;;2.41;100.00;101903.72;5072900;28;20028;-83
2022/12/05 10:11:22;;;;;;;23.42;12.20;;;;;;;2.41;100.00;101904.63;5073252;28;20029;-83
2022/12/05 10:14:07;;;;;;;22.98;11.95;;;;;;;2.39;100.00;101907.94;5073764;28;20033;-83
2022/12/05 10:16:41;;;;;;;21.48;10.43;;;;;;;2.38;100.00;101904.50;5072806;28;20083;-83
2022/12/05 10:19:21;;;;;;;22.70;10.98;;;;;;;2.33;100.00;101900.03;5073372;28;20052;-84
2022/12/05 10:22:00;;;;;;;20.70;10.23;;;;;;;2.27;100.00;101901.53;5072967;28;20035;-83
2022/12/05 10:24:36;;;;;;;21.30;10.90;;;;;;;2.23;100.00;101899.72;5073103;28;20025;-83
2022/12/05 10:27:05;;;;;;;21.42;10.50;;;;;;;2.21;100.00;101903.91;5073383;28;20025;-83
2022/12/05 10:29:36;;;;;;;21.17;10.88;;;;;;;2.18;100.00;101892.69;5072530;28;20040;-83
2022/12/05 10:32:10;;;;;;;19.13;9.20;;;;;;;2.20;100.00;101904.72;5073376;28;20032;-83
2022/12/05 10:34:41;;;;;;;20.15;10.32;;;;;;;2.20;100.00;101904.72;5073018;28;20074;-83
2022/12/05 10:37:22;;;;;;;18.75;9.00;;;;;;;2.22;100.00;101907.31;5071677;28;20041;-83
2022/12/05 10:39:49;;;;;;;18.33;8.80;;;;;;;2.24;100.00;101901.47;5072608;28;20029;-83
2022/12/05 10:42:16;;;;;;;;;;;;;;;2.22;100.00;101908.22;5073157;28;20477;-84
2022/12/05 10:44:43;;;;;;;20.27;9.77;;;;;;;2.22;100.00;101908.22;5072660;28;19913;-87
2022/12/05 10:47:09;;;;;;;18.17;9.05;;;;;;;2.22;100.00;101902.19;5073001;28;20096;-85
2022/12/05 10:49:35;;;;;;;17.52;8.50;;;;;;;2.27;100.00;101903.25;5072501;28;20452;-85
2022/12/05 10:52:01;;;;;;;17.00;7.70;;;;;;;2.31;100.00;101905.97;5073436;28;20042;-87
2022/12/05 10:54:33;;;;;;;15.90;7.35;;;;;;;2.36;100.00;101906.13;5072945;28;20419;-84
2022/12/05 10:56:58;;;;;;;16.40;7.43;;;;;;;2.38;100.00;101909.63;5072288;28;20021;-85
2022/12/05 10:59:25;;;;;;;18.52;8.70;;;;;;;2.36;100.00;101907.84;5072833;28;20077;-84
2022/12/05 11:01:55;;;;;;;;;;;;;;;2.40;100.00;101907.09;5072623;28;20063;-83
2022/12/05 11:04:24;;;;;;;14.98;7.32;;;;;;;2.44;100.00;101909.84;5071430;28;19935;-83
2022/12/05 11:07:00;;;;;;;14.57;6.70;;;;;;;2.50;100.00;101903.19;5070591;28;20032;-87
2022/12/05 11:09:31;;;;;;;15.45;6.93;;;;;;;2.51;100.00;101902.38;5072099;28;20052;-84
2022/12/05 11:12:04;;;;;;;18.58;9.05;;;;;;;2.47;100.00;101897.13;5072297;28;20032;-83
2022/12/05 11:14:32;;;;;;;19.63;10.35;;;;;;;2.38;100.00;101893.38;5072998;28;20032;-83
2022/12/05 11:17:00;;;;;;;20.13;10.25;;;;;;;2.39;100.00;101890.88;5072264;28;20480;-83
2022/12/05 11:19:37;;;;;;;20.52;10.18;;;;;;;2.41;100.00;101883.22;5071628;28;20087;-83
2022/12/05 11:22:03;;;;;;;18.73;8.50;;;;;;;2.47;100.00;101896.28;5072708;28;20082;-83
2022/12/05 11:24:36;;;;;;;16.20;7.40;;;;;;;2.51;100.00;101885.28;5072586;28;20035;-84
2022/12/05 11:27:16;;;;;;;19.02;9.27;;;;;;;2.51;100.00;101892.97;5072891;28;20020;-83
2022/12/05 11:29:52;;;;;;;19.55;9.68;;;;;;;2.52;100.00;101892.16;5072701;28;20056;-83
2022/12/05 11:32:23;;;;;;;17.75;7.70;;;;;;;2.57;100.00;101882.97;5071497;28;20028;-83
2022/12/05 11:34:55;;;;;;;16.10;7.15;;;;;;;2.66;100.00;101884.09;5072863;28;20058;-83
2022/12/05 11:37:25;;;;;;;11.32;5.90;;;;;;;2.70;100.00;101886.81;5071948;28;20489;-83